KAND/AND METAR and TAF weather

Enter ICAO airport designator
Station Type Date Time Source
KAND METAR 2020/12/06 00:56 UTC NOAA

KAND 060056Z AUTO 08003KT 10SM CLR 07/03 A3002 RMK AO2 SLP167 T00670028


Station Type Date Time Source
KAND Decoded METAR 2020/12/06 00:56 UTC NOAA

ANDERSON COUNTY AIRPORT, SC, United States (KAND) 34-30N 82-43W 239M
Dec 05, 2020 - 07:56 PM EST / 2020.12.06 0056 UTC
Wind: from the E (080 degrees) at 3 MPH (3 KT):0
Visibility: 10 mile(s):0
Sky conditions: clear
Temperature: 44.1 F (6.7 C)
Dew Point: 37.0 F (2.8 C)
Relative Humidity: 76%
Pressure (altimeter): 30.02 in. Hg (1016 hPa)
ob: KAND 060056Z AUTO 08003KT 10SM CLR 07/03 A3002 RMK AO2 SLP167 T00670028
cycle: 1

Station Type Date Time Source
KAND TAF 2020/12/05 18:33 UTC NOAA

TAF KAND 051731Z 0518/0618 25006KT P6SM SKC
FM052300 VRB03KT P6SM SKC
FM061600 18005KT P6SM FEW250

Example: see airport list